Time;durP1;ratioP1;P1;durP2;ratioP2;P2;SDS_P1;SDS_P2;PMS_P1;PMS_P2;Temp;Humidity;BMP_temperature;BMP_pressure;BME280_temperature;BME280_humidity;BME280_pressure;Samples;Min_cycle;Max_cycle;Signal;HPM_P1;HPM_P2
2023/07/19 00:02:12;;;;;;;10.15;4.90;;;;;;;;;;6307738;22;20022;-64
2023/07/19 00:04:39;;;;;;;8.32;4.80;;;;;;;;;;6307956;22;20086;-63
2023/07/19 00:07:07;;;;;;;10.77;5.00;;;;;;;;;;6308248;22;20056;-63
2023/07/19 00:09:34;;;;;;;8.23;4.95;;;;;;;;;;6307901;22;20099;-63
2023/07/19 00:12:02;;;;;;;14.30;5.55;;;;;;;;;;6307900;22;20022;-64
2023/07/19 00:14:29;;;;;;;10.45;5.47;;;;;;;;;;6307870;22;20011;-64
2023/07/19 00:16:57;;;;;;;9.73;4.95;;;;;;;;;;6307753;22;20019;-64
2023/07/19 00:19:24;;;;;;;9.30;4.95;;;;;;;;;;6307708;22;20011;-63
2023/07/19 00:21:52;;;;;;;9.73;4.93;;;;;;;;;;6307636;22;20093;-63
2023/07/19 00:24:19;;;;;;;10.10;5.43;;;;;;;;;;6307987;22;20384;-63
2023/07/19 00:26:48;;;;;;;8.65;5.30;;;;;;;;;;6307851;22;20019;-63
2023/07/19 00:29:16;;;;;;;9.23;5.32;;;;;;;;;;6280377;22;20019;-63
2023/07/19 00:31:44;;;;;;;12.38;5.43;;;;;;;;;;6280197;22;20089;-63
2023/07/19 00:34:12;;;;;;;7.15;5.32;;;;;;;;;;6307753;22;20019;-63
2023/07/19 00:36:39;;;;;;;13.13;5.15;;;;;;;;;;6280295;22;20023;-63
2023/07/19 00:39:07;;;;;;;12.95;5.55;;;;;;;;;;6280388;22;20371;-63
2023/07/19 00:41:34;;;;;;;10.05;5.53;;;;;;;;;;6280079;22;20015;-63
2023/07/19 00:44:03;;;;;;;10.20;5.25;;;;;;;;;;6280511;22;20027;-63
2023/07/19 00:46:31;;;;;;;10.77;5.45;;;;;;;;;;6280126;22;20380;-63
2023/07/19 00:48:58;;;;;;;11.00;5.30;;;;;;;;;;6280133;22;20030;-63
2023/07/19 00:51:26;;;;;;;8.00;5.18;;;;;;;;;;6307426;22;20025;-63
2023/07/19 00:53:54;;;;;;;10.23;5.60;;;;;;;;;;6280235;22;20015;-63
2023/07/19 00:56:23;;;;;;;12.75;5.10;;;;;;;;;;6307555;22;20336;-63
2023/07/19 00:58:51;;;;;;;13.63;5.82;;;;;;;;;;6254758;22;20021;-63
2023/07/19 01:01:22;;;;;;;10.15;5.53;;;;;;;;;;6307491;22;20015;-63
2023/07/19 01:03:50;;;;;;;10.82;5.28;;;;;;;;;;6307370;22;20015;-63
2023/07/19 01:06:18;;;;;;;13.20;5.55;;;;;;;;;;6279339;22;20020;-63
2023/07/19 01:08:48;;;;;;;12.07;5.30;;;;;;;;;;6280081;22;20318;-63
2023/07/19 01:11:15;;;;;;;11.88;5.38;;;;;;;;;;6307435;22;20510;-63
2023/07/19 01:13:54;;;;;;;11.65;5.82;;;;;;;;;;6280231;22;20375;-63
2023/07/19 01:16:21;;;;;;;18.27;6.10;;;;;;;;;;6254577;22;20038;-64
2023/07/19 01:18:49;;;;;;;12.18;5.50;;;;;;;;;;6280203;22;20084;-63
2023/07/19 01:21:16;;;;;;;12.35;5.75;;;;;;;;;;6280099;22;20011;-65
2023/07/19 01:23:50;;;;;;;15.45;5.60;;;;;;;;;;6279936;22;20457;-63
2023/07/19 01:26:18;;;;;;;15.20;5.95;;;;;;;;;;6279829;22;20019;-64
2023/07/19 01:28:46;;;;;;;9.75;5.90;;;;;;;;;;6307476;22;20025;-63
2023/07/19 01:31:15;;;;;;;9.10;5.90;;;;;;;;;;6280481;22;20082;-64
2023/07/19 01:33:43;;;;;;;15.15;6.30;;;;;;;;;;6307131;22;20019;-63
2023/07/19 01:36:11;;;;;;;14.68;5.70;;;;;;;;;;6280023;22;20042;-63
2023/07/19 01:38:41;;;;;;;11.80;5.90;;;;;;;;;;6279828;22;20026;-63
2023/07/19 01:41:08;;;;;;;10.57;5.43;;;;;;;;;;6307077;22;20311;-63
2023/07/19 01:43:36;;;;;;;11.18;5.60;;;;;;;;;;6307020;22;20023;-63
2023/07/19 01:46:03;;;;;;;10.77;5.45;;;;;;;;;;6279651;22;20046;-63
2023/07/19 01:48:33;;;;;;;10.38;5.85;;;;;;;;;;6280826;22;20026;-63
2023/07/19 01:51:02;;;;;;;13.10;5.53;;;;;;;;;;6254386;22;20098;-63
2023/07/19 01:53:30;;;;;;;13.38;5.70;;;;;;;;;;6279543;22;20041;-63
2023/07/19 01:55:57;;;;;;;11.70;5.60;;;;;;;;;;6307045;22;20045;-63
2023/07/19 01:58:25;;;;;;;15.15;6.75;;;;;;;;;;6306720;22;20019;-64
2023/07/19 02:00:53;;;;;;;12.88;6.00;;;;;;;;;;6279508;22;20023;-63
2023/07/19 02:03:21;;;;;;;15.02;5.97;;;;;;;;;;6279336;22;20023;-64
2023/07/19 02:05:57;;;;;;;12.93;5.57;;;;;;;;;;6279540;22;20015;-64
2023/07/19 02:08:25;;;;;;;16.95;5.75;;;;;;;;;;6279589;22;20489;-63
2023/07/19 02:10:54;;;;;;;9.40;5.18;;;;;;;;;;6279488;22;20019;-63
2023/07/19 02:13:21;;;;;;;10.02;5.88;;;;;;;;;;6306828;22;20433;-64
2023/07/19 02:15:49;;;;;;;14.07;6.38;;;;;;;;;;6279416;22;20027;-63
2023/07/19 02:18:17;;;;;;;17.13;6.45;;;;;;;;;;6306915;22;20012;-63
2023/07/19 02:20:45;;;;;;;17.88;6.32;;;;;;;;;;6306812;22;20020;-63
2023/07/19 02:23:14;;;;;;;15.90;6.18;;;;;;;;;;6306736;22;20094;-63
2023/07/19 02:25:42;;;;;;;16.60;6.97;;;;;;;;;;6279570;22;20098;-63
2023/07/19 02:28:11;;;;;;;17.52;5.75;;;;;;;;;;6279383;22;20026;-63
2023/07/19 02:30:44;;;;;;;14.82;5.93;;;;;;;;;;6306794;22;20022;-63
2023/07/19 02:33:14;;;;;;;17.40;6.47;;;;;;;;;;6306759;22;20012;-63
2023/07/19 02:35:42;;;;;;;18.67;6.20;;;;;;;;;;6279551;22;20022;-63
2023/07/19 02:38:10;;;;;;;14.15;6.30;;;;;;;;;;6306594;22;20022;-63
2023/07/19 02:40:38;;;;;;;13.38;6.50;;;;;;;;;;6279406;22;20098;-63
2023/07/19 02:43:05;;;;;;;17.00;6.80;;;;;;;;;;6279315;22;20062;-64
2023/07/19 02:45:36;;;;;;;13.38;6.72;;;;;;;;;;6279313;22;20049;-64
2023/07/19 02:48:03;;;;;;;13.32;6.45;;;;;;;;;;6306758;22;20030;-64
2023/07/19 02:50:31;;;;;;;14.02;6.68;;;;;;;;;;6254129;22;20015;-63
2023/07/19 02:52:59;;;;;;;14.02;6.93;;;;;;;;;;6279742;22;20380;-63
2023/07/19 02:55:29;;;;;;;15.00;6.55;;;;;;;;;;6279465;22;20039;-63
2023/07/19 02:57:56;;;;;;;16.05;6.75;;;;;;;;;;6279335;22;20344;-63
2023/07/19 03:00:24;;;;;;;11.10;6.28;;;;;;;;;;6279371;22;20020;-64
2023/07/19 03:02:53;;;;;;;14.07;6.85;;;;;;;;;;6279238;22;20023;-63
2023/07/19 03:05:22;;;;;;;26.58;11.73;;;;;;;;;;6306737;22;20376;-63
2023/07/19 03:07:50;;;;;;;23.20;10.88;;;;;;;;;;6279109;22;20023;-63
2023/07/19 03:10:17;;;;;;;25.77;11.60;;;;;;;;;;6279229;22;20385;-63
2023/07/19 03:12:45;;;;;;;25.23;11.90;;;;;;;;;;6279209;22;20098;-63
2023/07/19 03:15:13;;;;;;;25.02;10.65;;;;;;;;;;6306561;22;20345;-63
2023/07/19 03:17:40;;;;;;;19.25;8.10;;;;;;;;;;6279366;22;20027;-63
2023/07/19 03:20:09;;;;;;;12.65;7.43;;;;;;;;;;6306948;22;20034;-65
2023/07/19 03:22:37;;;;;;;15.32;7.50;;;;;;;;;;6278956;22;20015;-63
2023/07/19 03:25:05;;;;;;;13.25;7.13;;;;;;;;;;6278756;22;20035;-72
2023/07/19 03:27:33;;;;;;;17.95;7.47;;;;;;;;;;6279271;22;20023;-63
2023/07/19 03:30:01;;;;;;;16.13;7.03;;;;;;;;;;6280784;22;20019;-63
2023/07/19 03:32:30;;;;;;;14.15;7.07;;;;;;;;;;6280704;22;20023;-63
2023/07/19 03:34:57;;;;;;;15.13;6.95;;;;;;;;;;6280896;22;20035;-63
2023/07/19 03:37:25;;;;;;;15.68;7.20;;;;;;;;;;6280921;22;20023;-64
2023/07/19 03:39:53;;;;;;;13.38;6.78;;;;;;;;;;6281782;22;20015;-63
2023/07/19 03:42:21;;;;;;;15.13;7.47;;;;;;;;;;6280714;22;20094;-64
2023/07/19 03:44:49;;;;;;;14.80;6.95;;;;;;;;;;6280990;22;20030;-64
2023/07/19 03:47:16;;;;;;;16.13;6.40;;;;;;;;;;6280905;22;20072;-64
2023/07/19 03:49:44;;;;;;;11.57;7.45;;;;;;;;;;6307956;22;20446;-64
2023/07/19 03:52:11;;;;;;;17.15;7.47;;;;;;;;;;6307914;22;20078;-64
2023/07/19 03:54:39;;;;;;;12.55;7.15;;;;;;;;;;6280560;22;20098;-64
2023/07/19 03:57:07;;;;;;;17.08;6.85;;;;;;;;;;6280851;22;20019;-64
2023/07/19 03:59:34;;;;;;;12.57;6.57;;;;;;;;;;6281056;22;20027;-64
2023/07/19 04:02:02;;;;;;;11.75;6.55;;;;;;;;;;6307471;22;20011;-65
2023/07/19 04:04:30;;;;;;;12.23;6.43;;;;;;;;;;6280735;22;20023;-64
2023/07/19 04:06:58;;;;;;;9.27;6.32;;;;;;;;;;6280521;22;20520;-64
2023/07/19 04:09:25;;;;;;;12.23;6.78;;;;;;;;;;6280554;22;20019;-64
2023/07/19 04:11:53;;;;;;;11.85;6.57;;;;;;;;;;6307746;22;20022;-65
2023/07/19 04:14:20;;;;;;;11.45;7.68;;;;;;;;;;6307981;22;20030;-64
2023/07/19 04:16:48;;;;;;;12.10;6.60;;;;;;;;;;6280502;22;20397;-64
2023/07/19 04:19:16;;;;;;;9.60;6.05;;;;;;;;;;6280561;22;20098;-65
2023/07/19 04:21:44;;;;;;;13.60;6.55;;;;;;;;;;6280491;22;20019;-65
2023/07/19 04:24:11;;;;;;;8.45;5.85;;;;;;;;;;6280430;22;20029;-65
2023/07/19 04:26:39;;;;;;;11.23;6.18;;;;;;;;;;6307869;22;20102;-64
2023/07/19 04:29:06;;;;;;;10.90;5.90;;;;;;;;;;6280733;22;20026;-64
2023/07/19 04:31:34;;;;;;;7.90;5.60;;;;;;;;;;6280296;22;20021;-64
2023/07/19 04:34:01;;;;;;;10.75;5.82;;;;;;;;;;6280213;22;20471;-64
2023/07/19 04:36:30;;;;;;;12.88;6.53;;;;;;;;;;6280655;22;20019;-64
2023/07/19 04:38:57;;;;;;;10.00;6.03;;;;;;;;;;6280166;22;20089;-64
2023/07/19 04:41:26;;;;;;;12.63;5.95;;;;;;;;;;6280399;22;20120;-64
2023/07/19 04:43:53;;;;;;;10.55;5.32;;;;;;;;;;6280291;22;20425;-65
2023/07/19 04:46:21;;;;;;;9.68;5.70;;;;;;;;;;6307617;22;20011;-65
2023/07/19 04:48:49;;;;;;;8.05;5.80;;;;;;;;;;6307616;22;20034;-65
2023/07/19 04:51:17;;;;;;;9.27;5.38;;;;;;;;;;6307529;22;20464;-65
2023/07/19 04:53:47;;;;;;;8.60;5.43;;;;;;;;;;6280042;22;20053;-64
2023/07/19 04:56:15;;;;;;;9.32;5.43;;;;;;;;;;6280072;22;20019;-64
2023/07/19 04:58:43;;;;;;;11.35;4.82;;;;;;;;;;6279233;22;20015;-64
2023/07/19 05:01:11;;;;;;;12.10;5.88;;;;;;;;;;6280108;22;20016;-64
2023/07/19 05:03:40;;;;;;;12.20;5.25;;;;;;;;;;6280180;22;20031;-64
2023/07/19 05:06:08;;;;;;;9.18;5.15;;;;;;;;;;6280339;22;20449;-64
2023/07/19 05:08:37;;;;;;;7.47;4.72;;;;;;;;;;6279951;22;20015;-65
2023/07/19 05:11:05;;;;;;;8.50;4.75;;;;;;;;;;6280283;22;20019;-64
2023/07/19 05:13:32;;;;;;;10.35;4.95;;;;;;;;;;6279914;22;20019;-64
2023/07/19 05:16:01;;;;;;;10.38;5.00;;;;;;;;;;6280134;22;20051;-65
2023/07/19 05:18:28;;;;;;;8.32;4.68;;;;;;;;;;6279955;22;20110;-65
2023/07/19 05:20:56;;;;;;;7.93;4.70;;;;;;;;;;6280295;22;20019;-65
2023/07/19 05:23:24;;;;;;;6.93;4.40;;;;;;;;;;6307136;22;20456;-65
2023/07/19 05:25:51;;;;;;;8.90;4.72;;;;;;;;;;6307294;22;20389;-64
2023/07/19 05:28:20;;;;;;;8.93;4.93;;;;;;;;;;6307865;22;20021;-66
2023/07/19 05:30:48;;;;;;;9.10;4.90;;;;;;;;;;6307171;22;20068;-65
2023/07/19 05:33:15;;;;;;;9.68;4.82;;;;;;;;;;6307599;22;20500;-65
2023/07/19 05:35:43;;;;;;;9.85;5.25;;;;;;;;;;6307123;22;20082;-64
2023/07/19 05:38:12;;;;;;;7.35;4.80;;;;;;;;;;6279673;22;20019;-64
2023/07/19 05:40:40;;;;;;;10.60;4.78;;;;;;;;;;6307127;22;20011;-66
2023/07/19 05:43:08;;;;;;;7.18;5.00;;;;;;;;;;6306898;22;20022;-66
2023/07/19 05:45:35;;;;;;;7.50;4.93;;;;;;;;;;6307132;22;20011;-66
2023/07/19 05:48:03;;;;;;;18.27;5.43;;;;;;;;;;6307696;22;20072;-64
2023/07/19 05:50:31;;;;;;;9.38;4.90;;;;;;;;;;6279606;22;20020;-65
2023/07/19 05:52:58;;;;;;;6.70;5.10;;;;;;;;;;6307045;22;20056;-64
2023/07/19 05:55:26;;;;;;;10.55;6.05;;;;;;;;;;6306954;22;20032;-65
2023/07/19 05:57:53;;;;;;;8.77;4.90;;;;;;;;;;6307438;22;20437;-65
2023/07/19 06:00:28;;;;;;;10.63;4.97;;;;;;;;;;6306978;22;20405;-65
2023/07/19 06:02:56;;;;;;;8.85;4.53;;;;;;;;;;6306746;22;20022;-65
2023/07/19 06:05:24;;;;;;;12.50;5.00;;;;;;;;;;6280192;22;20019;-65
2023/07/19 06:07:52;;;;;;;10.88;5.30;;;;;;;;;;6306940;22;20086;-65
2023/07/19 06:10:20;;;;;;;7.32;4.53;;;;;;;;;;6306889;22;20023;-65
2023/07/19 06:12:49;;;;;;;7.55;4.32;;;;;;;;;;6306908;22;20026;-65
2023/07/19 06:15:16;;;;;;;8.15;4.70;;;;;;;;;;6306547;22;20061;-65
2023/07/19 06:17:44;;;;;;;10.40;5.20;;;;;;;;;;6306814;22;20019;-65
2023/07/19 06:20:12;;;;;;;6.47;5.20;;;;;;;;;;6306831;22;20034;-65
2023/07/19 06:22:40;;;;;;;13.13;5.70;;;;;;;;;;6306620;22;20090;-65
2023/07/19 06:25:08;;;;;;;8.52;4.70;;;;;;;;;;6306767;22;20018;-65
2023/07/19 06:27:36;;;;;;;8.00;5.40;;;;;;;;;;6306700;22;20026;-66
2023/07/19 06:30:04;;;;;;;23.02;5.97;;;;;;;;;;6280074;22;20026;-66
2023/07/19 06:32:31;;;;;;;16.63;5.57;;;;;;;;;;6279707;22;20012;-65
2023/07/19 06:34:59;;;;;;;7.90;4.95;;;;;;;;;;6307111;22;20030;-65
2023/07/19 06:37:26;;;;;;;7.72;4.80;;;;;;;;;;6306663;22;20023;-66
2023/07/19 06:39:54;;;;;;;12.55;5.43;;;;;;;;;;6307065;22;20020;-65
2023/07/19 06:42:21;;;;;;;10.70;5.25;;;;;;;;;;6279923;22;20364;-66
2023/07/19 06:44:49;;;;;;;8.75;4.80;;;;;;;;;;6306674;22;20015;-65
2023/07/19 06:47:16;;;;;;;8.43;5.20;;;;;;;;;;6306693;22;20015;-65
2023/07/19 06:49:44;;;;;;;11.13;5.20;;;;;;;;;;6306783;22;20026;-65
2023/07/19 06:52:12;;;;;;;8.40;5.25;;;;;;;;;;6306919;22;20098;-66
2023/07/19 06:54:39;;;;;;;9.07;5.40;;;;;;;;;;6306991;22;20019;-65
2023/07/19 06:57:07;;;;;;;7.90;4.97;;;;;;;;;;6306584;22;20015;-65
2023/07/19 06:59:35;;;;;;;9.60;5.60;;;;;;;;;;6306755;22;20502;-65
2023/07/19 07:02:02;;;;;;;8.85;5.60;;;;;;;;;;6306510;22;20022;-65
2023/07/19 07:04:30;;;;;;;10.77;5.78;;;;;;;;;;6308223;22;20338;-66
2023/07/19 07:06:57;;;;;;;10.13;6.05;;;;;;;;;;6308419;22;20015;-65
2023/07/19 07:09:25;;;;;;;10.13;6.30;;;;;;;;;;6308566;22;20015;-64
2023/07/19 07:11:53;;;;;;;10.13;6.30;;;;;;;;;;6308504;22;20037;-64
2023/07/19 07:14:20;;;;;;;13.70;6.10;;;;;;;;;;6281165;22;20023;-64
2023/07/19 07:16:48;;;;;;;14.00;6.40;;;;;;;;;;6308373;22;20017;-64
2023/07/19 07:19:15;;;;;;;12.77;5.85;;;;;;;;;;6308565;22;20528;-65
2023/07/19 07:21:43;;;;;;;10.43;5.00;;;;;;;;;;6308597;22;20015;-65
2023/07/19 07:24:10;;;;;;;10.02;5.57;;;;;;;;;;6308366;22;20025;-65
2023/07/19 07:26:38;;;;;;;59.88;14.05;;;;;;;;;;6308412;22;20012;-65
2023/07/19 07:29:05;;;;;;;12.60;5.82;;;;;;;;;;6308372;22;20019;-65
2023/07/19 07:31:33;;;;;;;12.13;5.57;;;;;;;;;;6281653;22;20061;-65
2023/07/19 07:34:01;;;;;;;8.55;5.20;;;;;;;;;;6308624;22;20015;-65
2023/07/19 07:36:28;;;;;;;9.30;5.10;;;;;;;;;;6308297;22;20094;-65
2023/07/19 07:38:56;;;;;;;7.07;5.13;;;;;;;;;;6308377;22;20120;-64
2023/07/19 07:41:23;;;;;;;8.48;5.07;;;;;;;;;;6308165;22;20015;-65
2023/07/19 07:43:51;;;;;;;25.58;7.30;;;;;;;;;;6281029;22;20387;-64
2023/07/19 07:46:18;;;;;;;21.42;6.68;;;;;;;;;;6308242;22;20011;-65
2023/07/19 07:48:46;;;;;;;8.65;5.28;;;;;;;;;;6308154;22;20046;-65
2023/07/19 07:51:13;;;;;;;9.20;5.25;;;;;;;;;;6308198;22;20096;-65
2023/07/19 07:53:41;;;;;;;10.77;5.40;;;;;;;;;;6308089;22;20022;-65
2023/07/19 07:56:08;;;;;;;19.02;5.57;;;;;;;;;;6307831;22;20458;-66
2023/07/19 07:58:36;;;;;;;8.05;5.00;;;;;;;;;;6307943;22;20016;-65
2023/07/19 08:01:03;;;;;;;7.65;5.10;;;;;;;;;;6280506;22;20039;-63
2023/07/19 08:03:31;;;;;;;7.90;4.78;;;;;;;;;;6307747;22;20046;-66
2023/07/19 08:05:59;;;;;;;8.15;5.20;;;;;;;;;;6307838;22;20016;-66
2023/07/19 08:08:26;;;;;;;9.10;5.28;;;;;;;;;;6307678;22;20022;-65
2023/07/19 08:10:54;;;;;;;11.48;5.53;;;;;;;;;;6308298;22;20027;-65
2023/07/19 08:13:21;;;;;;;8.90;4.63;;;;;;;;;;6308061;22;20400;-65
2023/07/19 08:15:49;;;;;;;7.72;4.30;;;;;;;;;;6307966;22;20038;-65
2023/07/19 08:18:16;;;;;;;8.40;5.90;;;;;;;;;;6308135;22;20440;-65
2023/07/19 08:20:44;;;;;;;11.07;5.65;;;;;;;;;;6308091;22;20021;-64
2023/07/19 08:23:11;;;;;;;7.18;4.28;;;;;;;;;;6307675;22;20506;-65
2023/07/19 08:25:39;;;;;;;9.13;4.75;;;;;;;;;;6307765;22;20020;-65
2023/07/19 08:28:06;;;;;;;13.13;5.50;;;;;;;;;;6308100;22;20364;-65
2023/07/19 08:30:34;;;;;;;8.93;4.78;;;;;;;;;;6307913;22;20047;-65
2023/07/19 08:33:08;;;;;;;5.75;4.88;;;;;;;;;;6307769;22;20098;-64
2023/07/19 08:35:36;;;;;;;7.07;4.57;;;;;;;;;;6307627;22;20019;-65
2023/07/19 08:38:04;;;;;;;8.63;4.57;;;;;;;;;;6280594;22;20086;-65
2023/07/19 08:40:32;;;;;;;11.02;6.32;;;;;;;;;;6307666;22;20086;-65
2023/07/19 08:42:59;;;;;;;4.88;4.38;;;;;;;;;;6307749;22;20042;-65
2023/07/19 08:45:27;;;;;;;8.57;4.57;;;;;;;;;;6307582;22;20019;-65
2023/07/19 08:47:54;;;;;;;7.30;4.18;;;;;;;;;;6280718;22;20026;-65
2023/07/19 08:50:23;;;;;;;6.28;4.45;;;;;;;;;;6307810;22;20322;-65
2023/07/19 08:52:51;;;;;;;5.95;4.40;;;;;;;;;;6307594;22;20433;-65
2023/07/19 08:55:18;;;;;;;5.85;4.30;;;;;;;;;;6307534;22;20045;-66
2023/07/19 08:57:46;;;;;;;10.00;4.55;;;;;;;;;;6307742;22;20015;-65
2023/07/19 09:00:17;;;;;;;6.38;4.20;;;;;;;;;;6307301;22;20015;-65
2023/07/19 09:02:45;;;;;;;6.65;4.30;;;;;;;;;;6280511;22;20086;-65
2023/07/19 09:05:13;;;;;;;37.97;6.90;;;;;;;;;;6307183;22;20508;-65
2023/07/19 09:07:41;;;;;;;9.93;4.35;;;;;;;;;;6280320;22;20015;-66
2023/07/19 09:10:09;;;;;;;7.45;4.40;;;;;;;;;;6307232;22;20022;-65
2023/07/19 09:12:37;;;;;;;8.05;4.47;;;;;;;;;;6307435;22;20398;-65
2023/07/19 09:15:08;;;;;;;11.15;4.70;;;;;;;;;;6307322;22;20106;-66
2023/07/19 09:17:37;;;;;;;7.75;4.60;;;;;;;;;;6307228;22;20034;-65
2023/07/19 09:20:06;;;;;;;8.85;4.35;;;;;;;;;;6307552;22;20026;-66
2023/07/19 09:22:37;;;;;;;6.20;4.65;;;;;;;;;;6307144;22;20066;-65
2023/07/19 09:25:05;;;;;;;6.15;4.30;;;;;;;;;;6307100;22;20019;-66
2023/07/19 09:27:33;;;;;;;7.85;5.85;;;;;;;;;;6307194;22;20442;-66
2023/07/19 09:30:03;;;;;;;6.57;4.53;;;;;;;;;;6307183;22;20089;-66
2023/07/19 09:32:30;;;;;;;17.70;6.50;;;;;;;;;;6307064;22;20037;-65
2023/07/19 09:35:04;;;;;;;10.25;5.00;;;;;;;;;;6307379;22;20035;-65
2023/07/19 09:37:32;;;;;;;7.13;4.60;;;;;;;;;;6307095;22;20116;-66
2023/07/19 09:40:00;;;;;;;7.65;4.88;;;;;;;;;;6307036;22;20039;-66
2023/07/19 09:42:29;;;;;;;7.15;4.38;;;;;;;;;;6307070;22;20437;-66
2023/07/19 09:44:59;;;;;;;7.75;4.78;;;;;;;;;;6306908;22;20016;-66
2023/07/19 09:47:27;;;;;;;6.63;4.50;;;;;;;;;;6307019;22;20011;-66
2023/07/19 09:49:57;;;;;;;9.25;4.65;;;;;;;;;;6307081;22;20015;-65
2023/07/19 09:52:25;;;;;;;8.70;5.22;;;;;;;;;;6306970;22;20444;-67
2023/07/19 09:54:54;;;;;;;11.70;4.53;;;;;;;;;;6306770;22;20027;-64
2023/07/19 09:57:26;;;;;;;7.10;4.65;;;;;;;;;;6279639;22;20419;-64
2023/07/19 09:59:53;;;;;;;8.20;5.72;;;;;;;;;;6306980;22;20041;-65
2023/07/19 10:02:24;;;;;;;12.20;4.25;;;;;;;;;;6307153;22;20332;-65
2023/07/19 10:04:52;;;;;;;7.63;4.10;;;;;;;;;;6306922;22;20492;-65
2023/07/19 10:07:26;;;;;;;7.00;4.22;;;;;;;;;;6306882;22;20057;-65
2023/07/19 10:10:14;;;;;;;9.65;4.28;;;;;;;;;;6306795;22;20019;-67
2023/07/19 10:12:46;;;;;;;6.72;4.13;;;;;;;;;;6306951;22;20019;-65
2023/07/19 10:15:16;;;;;;;7.95;5.15;;;;;;;;;;6307289;22;20019;-66
2023/07/19 10:18:00;;;;;;;6.22;3.90;;;;;;;;;;6307465;22;20070;-65
2023/07/19 10:20:35;;;;;;;7.88;4.32;;;;;;;;;;6306914;22;20011;-67
2023/07/19 10:23:05;;;;;;;5.72;4.30;;;;;;;;;;6306946;22;20012;-64
2023/07/19 10:25:33;;;;;;;8.45;4.40;;;;;;;;;;6306727;22;20015;-65
2023/07/19 10:28:24;;;;;;;5.82;4.40;;;;;;;;;;6307121;22;20058;-66
2023/07/19 10:30:53;;;;;;;5.88;4.55;;;;;;;;;;6291867;22;20023;-66
2023/07/19 10:33:21;;;;;;;7.43;4.30;;;;;;;;;;6279886;22;20015;-66
2023/07/19 10:35:50;;;;;;;8.82;4.05;;;;;;;;;;6307072;22;20086;-66
2023/07/19 10:38:18;;;;;;;6.72;4.32;;;;;;;;;;6307916;22;20015;-66
2023/07/19 10:40:52;;;;;;;6.85;4.22;;;;;;;;;;6308893;22;20042;-66
2023/07/19 10:43:19;;;;;;;9.30;4.20;;;;;;;;;;6308841;22;20019;-66
2023/07/19 10:46:07;;;;;;;7.68;3.92;;;;;;;;;;6308718;22;20020;-66
2023/07/19 10:48:36;;;;;;;10.88;4.57;;;;;;;;;;6308780;22;20019;-66
2023/07/19 10:51:10;;;;;;;7.53;3.90;;;;;;;;;;6308533;22;20015;-66
2023/07/19 10:53:41;;;;;;;10.30;4.85;;;;;;;;;;6308772;22;20015;-65
2023/07/19 10:56:08;;;;;;;8.10;4.88;;;;;;;;;;6308588;22;20019;-66
2023/07/19 10:58:36;;;;;;;8.10;4.75;;;;;;;;;;6308487;22;20019;-65
2023/07/19 11:01:04;;;;;;;5.88;4.78;;;;;;;;;;6308725;22;20015;-65
2023/07/19 11:03:32;;;;;;;7.05;5.75;;;;;;;;;;6308353;22;20015;-66
2023/07/19 11:06:01;;;;;;;10.50;9.32;;;;;;;;;;6308521;22;20093;-65
2023/07/19 11:08:30;;;;;;;11.77;8.18;;;;;;;;;;6308845;22;20011;-65
2023/07/19 11:10:58;;;;;;;7.88;4.97;;;;;;;;;;6308336;22;20390;-65
2023/07/19 11:13:26;;;;;;;6.10;4.05;;;;;;;;;;6308366;22;20021;-65
2023/07/19 11:15:54;;;;;;;9.57;4.97;;;;;;;;;;6308848;22;20029;-64
2023/07/19 11:18:29;;;;;;;7.35;4.63;;;;;;;;;;6308501;22;20019;-65
2023/07/19 11:20:59;;;;;;;5.97;4.25;;;;;;;;;;6308504;22;20043;-65
2023/07/19 11:23:28;;;;;;;7.57;4.63;;;;;;;;;;6308286;22;20011;-66
2023/07/19 11:26:05;;;;;;;5.88;4.35;;;;;;;;;;6308208;22;20041;-66
2023/07/19 11:28:37;;;;;;;10.38;4.45;;;;;;;;;;6308652;22;20011;-65
2023/07/19 11:31:05;;;;;;;7.15;4.10;;;;;;;;;;6308289;22;20045;-65
2023/07/19 11:33:36;;;;;;;9.65;4.88;;;;;;;;;;6308274;22;20019;-65
2023/07/19 11:36:08;;;;;;;6.40;4.40;;;;;;;;;;6308353;22;20016;-66
2023/07/19 11:38:38;;;;;;;6.43;4.68;;;;;;;;;;6308353;22;20132;-66
2023/07/19 11:41:06;;;;;;;7.10;3.72;;;;;;;;;;6308180;22;20456;-65
2023/07/19 11:43:33;;;;;;;7.82;3.97;;;;;;;;;;6308216;22;20441;-65
2023/07/19 11:46:01;;;;;;;5.72;3.75;;;;;;;;;;6305920;22;20095;-65
2023/07/19 11:48:28;;;;;;;7.22;4.90;;;;;;;;;;6300042;22;20015;-67
2023/07/19 11:50:56;;;;;;;6.07;4.07;;;;;;;;;;6273570;22;20218;-66
2023/07/19 11:53:27;;;;;;;7.72;4.45;;;;;;;;;;6274343;22;20108;-66
2023/07/19 11:55:54;;;;;;;8.45;5.00;;;;;;;;;;6300788;22;20015;-65
2023/07/19 11:58:29;;;;;;;8.20;4.88;;;;;;;;;;6300458;22;20353;-65
2023/07/19 12:01:11;;;;;;;5.35;4.07;;;;;;;;;;6300587;22;20038;-66
2023/07/19 12:03:39;;;;;;;8.43;6.00;;;;;;;;;;6301126;22;20098;-65
2023/07/19 12:06:08;;;;;;;6.07;4.70;;;;;;;;;;6301528;22;20064;-65
2023/07/19 12:08:36;;;;;;;10.20;4.80;;;;;;;;;;6300555;22;20448;-65
2023/07/19 12:11:05;;;;;;;8.43;4.00;;;;;;;;;;6300534;22;20507;-65
2023/07/19 12:13:33;;;;;;;6.95;4.70;;;;;;;;;;6248907;22;20011;-67
2023/07/19 12:16:01;;;;;;;5.97;4.30;;;;;;;;;;6301271;22;20098;-64
2023/07/19 12:18:29;;;;;;;6.65;4.25;;;;;;;;;;6301532;22;20039;-64
2023/07/19 12:20:57;;;;;;;11.00;7.78;;;;;;;;;;6301377;22;20054;-64
2023/07/19 12:23:24;;;;;;;5.43;4.28;;;;;;;;;;6300987;22;20022;-64
2023/07/19 12:25:55;;;;;;;10.73;6.68;;;;;;;;;;6301222;22;20015;-65
2023/07/19 12:28:22;;;;;;;6.70;5.07;;;;;;;;;;6300737;22;20015;-65
2023/07/19 12:30:51;;;;;;;7.20;4.68;;;;;;;;;;6301068;22;20019;-64
2023/07/19 12:33:18;;;;;;;6.35;4.00;;;;;;;;;;6301311;22;20019;-64
2023/07/19 12:35:46;;;;;;;4.53;4.13;;;;;;;;;;6300890;22;20393;-64
2023/07/19 12:38:15;;;;;;;8.52;4.68;;;;;;;;;;6301459;22;20030;-64
2023/07/19 12:40:43;;;;;;;7.32;4.15;;;;;;;;;;6273667;22;20445;-65
2023/07/19 12:43:10;;;;;;;6.18;4.60;;;;;;;;;;6301124;22;20016;-65
2023/07/19 12:45:38;;;;;;;8.15;4.60;;;;;;;;;;6301359;22;20520;-65
2023/07/19 12:48:05;;;;;;;7.70;4.70;;;;;;;;;;6300576;22;20468;-65
2023/07/19 12:50:33;;;;;;;8.85;4.85;;;;;;;;;;6301231;22;20026;-64
2023/07/19 12:53:00;;;;;;;13.32;5.18;;;;;;;;;;6301108;22;20019;-64
2023/07/19 12:55:28;;;;;;;6.45;4.35;;;;;;;;;;6300845;22;20025;-64
2023/07/19 12:57:55;;;;;;;8.50;4.75;;;;;;;;;;6301200;22;20015;-65
2023/07/19 13:00:23;;;;;;;4.82;4.03;;;;;;;;;;6300700;22;20023;-65
2023/07/19 13:02:51;;;;;;;9.88;5.55;;;;;;;;;;6300892;22;20064;-64
2023/07/19 13:05:18;;;;;;;6.95;4.35;;;;;;;;;;6273994;22;20023;-65
2023/07/19 13:07:46;;;;;;;8.98;4.70;;;;;;;;;;6301120;22;20435;-64
2023/07/19 13:10:13;;;;;;;6.47;4.57;;;;;;;;;;6300763;22;20592;-65
2023/07/19 13:12:43;;;;;;;7.15;4.55;;;;;;;;;;6300762;22;20019;-65
2023/07/19 13:15:11;;;;;;;6.45;4.45;;;;;;;;;;6300711;22;20012;-65
2023/07/19 13:17:40;;;;;;;6.43;4.05;;;;;;;;;;6301281;22;20417;-65
2023/07/19 13:20:09;;;;;;;11.23;5.38;;;;;;;;;;6300663;22;20530;-64
2023/07/19 13:22:39;;;;;;;9.48;4.35;;;;;;;;;;6273380;22;20053;-65
2023/07/19 13:25:07;;;;;;;5.72;4.13;;;;;;;;;;6300490;22;20070;-64
2023/07/19 13:27:35;;;;;;;5.85;4.40;;;;;;;;;;6300621;22;20019;-64
2023/07/19 13:30:03;;;;;;;7.13;4.20;;;;;;;;;;6300632;22;20020;-64
2023/07/19 13:32:32;;;;;;;5.57;4.20;;;;;;;;;;6300639;22;20019;-64
2023/07/19 13:35:00;;;;;;;7.07;4.90;;;;;;;;;;6300131;22;20023;-64
2023/07/19 13:37:27;;;;;;;10.10;4.97;;;;;;;;;;6300930;22;20021;-64
2023/07/19 13:40:15;;;;;;;6.20;4.70;;;;;;;;;;6273012;22;20431;-64
2023/07/19 13:42:42;;;;;;;8.32;4.72;;;;;;;;;;6300499;22;20091;-64
2023/07/19 13:45:10;;;;;;;8.98;4.45;;;;;;;;;;6300584;22;20019;-64
2023/07/19 13:47:37;;;;;;;7.78;4.60;;;;;;;;;;6299983;22;20022;-64
2023/07/19 13:50:09;;;;;;;6.28;4.60;;;;;;;;;;6300532;22;20029;-64
2023/07/19 13:52:37;;;;;;;8.48;4.70;;;;;;;;;;6300644;22;20015;-63
2023/07/19 13:55:05;;;;;;;5.80;4.70;;;;;;;;;;6300348;22;20454;-63
2023/07/19 13:57:32;;;;;;;10.10;4.78;;;;;;;;;;6300870;22;20022;-65
2023/07/19 14:00:00;;;;;;;9.23;4.30;;;;;;;;;;6300309;22;20781;-64
2023/07/19 14:02:32;;;;;;;7.53;4.40;;;;;;;;;;6300622;22;20015;-64
2023/07/19 14:05:00;;;;;;;7.83;4.57;;;;;;;;;;6300558;22;20019;-64
2023/07/19 14:07:28;;;;;;;7.13;4.88;;;;;;;;;;6300375;22;20248;-64
2023/07/19 14:09:56;;;;;;;8.23;4.40;;;;;;;;;;6300407;22;20015;-64
2023/07/19 14:12:23;;;;;;;6.82;4.00;;;;;;;;;;6300019;22;20026;-65
2023/07/19 14:15:02;;;;;;;10.40;4.82;;;;;;;;;;6300548;22;20407;-64
2023/07/19 14:17:30;;;;;;;8.82;4.43;;;;;;;;;;6300186;22;20015;-64
2023/07/19 14:19:58;;;;;;;8.50;4.68;;;;;;;;;;6273061;22;20027;-64
2023/07/19 14:22:26;;;;;;;8.18;4.00;;;;;;;;;;6299978;22;20381;-64
2023/07/19 14:24:54;;;;;;;8.75;5.47;;;;;;;;;;6299917;22;20023;-64
2023/07/19 14:27:21;;;;;;;8.40;4.35;;;;;;;;;;6300110;22;20019;-64
2023/07/19 14:29:51;;;;;;;8.27;4.63;;;;;;;;;;6300300;22;20090;-64
2023/07/19 14:32:19;;;;;;;8.00;4.30;;;;;;;;;;6300193;22;20031;-65
2023/07/19 14:34:48;;;;;;;8.02;4.90;;;;;;;;;;6299780;22;20082;-64
2023/07/19 14:37:16;;;;;;;7.63;5.45;;;;;;;;;;6300114;22;20030;-65
2023/07/19 14:39:43;;;;;;;7.88;4.88;;;;;;;;;;6300254;22;20614;-63
2023/07/19 14:42:12;;;;;;;20.33;6.22;;;;;;;;;;6300040;22;20650;-63
2023/07/19 14:44:39;;;;;;;12.25;5.50;;;;;;;;;;6299772;22;20094;-62